CheckWX is a tool to help pilots better visualize weather data.  It is not intended as a substitute for an official pre-flight weather briefing.

01:52:27 UTC

KTVL TAF
Lake Tahoe Airport
South Lake Tahoe, California, USA
KTVL 182320Z 1900/1924 04008KT P6SM SCT200 FM190200 VRB03KT P6SM SCT180 FM191900 18009KT P6SM SCT100 BKN160

Mar-19@
00:00 UTC

Mar-19 @ 00:00 UTC

Mar-19@
02:00 UTC

Mar-19 @ 02:00 UTC

KTVL 182320Z 1900/1924 04008KT P6SM SCT200
Wind
  • 040° at 8 KTS
Cloud Levels
  • Scattered at 20,000' AGL

Mar-19@
02:00 UTC

Mar-19 @ 02:00 UTC

Mar-19@
19:00 UTC

Mar-19 @ 19:00 UTC

FM190200 VRB03KT P6SM SCT180

From

From Standard forecast or significant change

Wind
  • Variable at 3 KTS
Cloud Levels
  • Scattered at 18,000' AGL

Mar-19@
19:00 UTC

Mar-19 @ 19:00 UTC

Mar-20@
00:00 UTC

Mar-20 @ 00:00 UTC

FM191900 18009KT P6SM SCT100 BKN160

From

From Standard forecast or significant change

Wind
  • 180° at 9 KTS
Cloud Levels
  • Scattered at 10,000' AGL
  • Broken at 16,000' AGL